createdAt,value
2023-03-06T00:01:37.831Z,99665.34
2023-03-06T00:04:40.544Z,99665.44
2023-03-06T00:07:43.371Z,99661.97
2023-03-06T00:10:45.994Z,99665.41
2023-03-06T00:13:48.168Z,99662.81
2023-03-06T00:16:55.367Z,99658.09
2023-03-06T00:19:57.585Z,99666.59
2023-03-06T00:23:00.244Z,99661.84
2023-03-06T00:26:02.433Z,99662.91
2023-03-06T00:29:05.014Z,99658.97
2023-03-06T00:32:07.669Z,99649.69
2023-03-06T00:35:10.832Z,99657.19
2023-03-06T00:38:13.175Z,99641.19
2023-03-06T00:41:15.595Z,99648.13
2023-03-06T00:44:17.711Z,99648.63
2023-03-06T00:47:20.194Z,99646.25
2023-03-06T00:50:22.452Z,99649.72
2023-03-06T00:53:25.425Z,99646.78
2023-03-06T00:56:27.589Z,99637.94
2023-03-06T00:59:30.015Z,99629.41
2023-03-06T01:02:32.436Z,99629.91
2023-03-06T01:05:36.920Z,99630.19
2023-03-06T01:08:39.040Z,99622.16
2023-03-06T01:11:41.499Z,99629.13
2023-03-06T01:14:43.643Z,99617.94
2023-03-06T01:17:46.280Z,99613.59
2023-03-06T01:20:48.696Z,99617.03
2023-03-06T01:23:51.478Z,99611.25
2023-03-06T01:26:53.722Z,99605.91
2023-03-06T01:29:56.396Z,99614.44
2023-03-06T01:32:59.250Z,99611.75
2023-03-06T01:36:07.397Z,99617.38
2023-03-06T01:39:09.858Z,99610.91
2023-03-06T01:42:12.265Z,99604.78
2023-03-06T01:45:14.321Z,99602.59
2023-03-06T01:48:20.924Z,99598.31
2023-03-06T01:51:27.236Z,99588.97
2023-03-06T01:54:36.345Z,99600.44
2023-03-06T01:57:48.256Z,99605.78
2023-03-06T02:00:52.145Z,99599.59
2023-03-06T02:03:55.240Z,99597.44
2023-03-06T02:07:01.191Z,99596.34
2023-03-06T02:10:07.366Z,99592.59
2023-03-06T02:13:09.789Z,99598.72
2023-03-06T02:16:13.595Z,99596.56
2023-03-06T02:19:28.792Z,99600.00
2023-03-06T02:22:53.496Z,99603.94
2023-03-06T02:25:57.021Z,99594.09
2023-03-06T02:29:00.039Z,99596.16
2023-03-06T02:32:02.964Z,99594.25
2023-03-06T02:35:07.102Z,99591.06
2023-03-06T02:38:13.619Z,99583.66
2023-03-06T02:41:16.338Z,99583.16
2023-03-06T02:44:22.319Z,99586.06
2023-03-06T02:47:24.645Z,99589.53
2023-03-06T02:50:27.168Z,99593.19
2023-03-06T02:53:29.368Z,99593.00
2023-03-06T02:56:34.032Z,99587.66
2023-03-06T02:59:36.307Z,99587.91
2023-03-06T03:02:40.279Z,99594.28
2023-03-06T03:05:42.536Z,99589.84
2023-03-06T03:08:45.779Z,99584.25
2023-03-06T03:11:48.689Z,99577.31
2023-03-06T03:14:51.535Z,99589.56
2023-03-06T03:17:53.813Z,99579.84
2023-03-06T03:20:56.397Z,99588.72
2023-03-06T03:23:58.541Z,99580.91
2023-03-06T03:27:02.356Z,99586.00
2023-03-06T03:30:05.073Z,99572.97
2023-03-06T03:33:08.290Z,99573.44
2023-03-06T03:36:10.626Z,99580.84
2023-03-06T03:39:13.733Z,99584.88
2023-03-06T03:42:16.132Z,99576.03
2023-03-06T03:45:19.048Z,99575.50
2023-03-06T03:48:21.678Z,99563.72
2023-03-06T03:51:24.500Z,99564.78
2023-03-06T03:54:27.240Z,99566.34
2023-03-06T03:57:30.237Z,99562.91
2023-03-06T04:00:33.012Z,99569.53
2023-03-06T04:03:36.617Z,99569.81
2023-03-06T04:06:39.539Z,99563.91
2023-03-06T04:09:42.412Z,99571.94
2023-03-06T04:12:44.684Z,99566.31
2023-03-06T04:15:48.223Z,99565.19
2023-03-06T04:18:50.887Z,99568.66
2023-03-06T04:21:53.482Z,99567.31
2023-03-06T04:24:56.735Z,99574.81
2023-03-06T04:27:59.194Z,99571.84
2023-03-06T04:31:01.632Z,99564.63
2023-03-06T04:34:05.247Z,99568.38
2023-03-06T04:37:18.026Z,99564.06
2023-03-06T04:40:28.190Z,99559.44
2023-03-06T04:43:30.468Z,99570.41
2023-03-06T04:46:33.509Z,99566.44
2023-03-06T04:49:35.661Z,99563.47
2023-03-06T04:52:40.296Z,99560.25
2023-03-06T04:55:42.953Z,99549.03
2023-03-06T04:58:45.538Z,99553.59
2023-03-06T05:01:47.815Z,99553.59
2023-03-06T05:04:50.296Z,99552.78
2023-03-06T05:07:53.160Z,99555.97
2023-03-06T05:10:58.391Z,99559.19
2023-03-06T05:14:00.599Z,99550.06
2023-03-06T05:17:03.157Z,99556.16
2023-03-06T05:20:06.920Z,99558.84
2023-03-06T05:23:09.497Z,99555.50
2023-03-06T05:26:13.935Z,99561.19
2023-03-06T05:29:16.362Z,99559.87
2023-03-06T05:32:18.584Z,99559.78
2023-03-06T05:35:23.158Z,99559.25
2023-03-06T05:38:26.048Z,99559.06
2023-03-06T05:41:28.538Z,99557.16
2023-03-06T05:44:33.082Z,99560.56
2023-03-06T05:47:35.566Z,99560.56
2023-03-06T05:50:38.193Z,99557.84
2023-03-06T05:53:41.005Z,99554.09
2023-03-06T05:56:43.382Z,99558.50
2023-03-06T05:59:46.464Z,99558.63
2023-03-06T06:02:49.005Z,99567.69
2023-03-06T06:05:52.397Z,99568.47
2023-03-06T06:08:54.638Z,99566.34
2023-03-06T06:12:00.259Z,99567.47
2023-03-06T06:15:02.597Z,99566.19
2023-03-06T06:18:05.348Z,99561.63
2023-03-06T06:21:09.228Z,99560.25
2023-03-06T06:24:14.025Z,99568.47
2023-03-06T06:27:16.244Z,99572.97
2023-03-06T06:30:18.955Z,99579.63
2023-03-06T06:33:21.358Z,99580.66
2023-03-06T06:36:23.862Z,99577.69
2023-03-06T06:39:28.255Z,99581.16
2023-03-06T06:42:37.724Z,99583.84
2023-03-06T06:45:44.073Z,99579.06
2023-03-06T06:48:50.822Z,99582.25
2023-03-06T06:51:53.022Z,99578.59
2023-03-06T06:54:55.432Z,99572.50
2023-03-06T06:57:57.567Z,99573.03
2023-03-06T07:01:11.934Z,99574.66
2023-03-06T07:04:14.884Z,99582.34
2023-03-06T07:07:17.500Z,99582.87
2023-03-06T07:10:21.033Z,99581.44
2023-03-06T07:13:23.650Z,99589.25
2023-03-06T07:16:25.901Z,99591.31
2023-03-06T07:19:28.503Z,99589.69
2023-03-06T07:22:41.459Z,99592.00
2023-03-06T07:25:47.506Z,99601.62
2023-03-06T07:28:53.140Z,99596.94
2023-03-06T07:31:55.742Z,99595.59
2023-03-06T07:35:13.718Z,99607.72
2023-03-06T07:38:20.531Z,99600.75
2023-03-06T07:41:23.105Z,99599.56
2023-03-06T07:44:25.670Z,99601.75
2023-03-06T07:47:28.035Z,99595.41
2023-03-06T07:50:31.001Z,99596.91
2023-03-06T07:53:34.681Z,99607.06
2023-03-06T07:56:37.168Z,99608.78
2023-03-06T07:59:39.305Z,99610.44
2023-03-06T08:02:42.765Z,99614.72
2023-03-06T08:05:46.200Z,99611.69
2023-03-06T08:08:51.036Z,99622.06
2023-03-06T08:11:53.525Z,99618.81
2023-03-06T08:14:55.764Z,99623.81
2023-03-06T08:17:58.405Z,99626.78
2023-03-06T08:21:02.864Z,99617.41
2023-03-06T08:24:07.547Z,99619.00
2023-03-06T08:27:10.596Z,99613.25
2023-03-06T08:30:14.049Z,99611.94
2023-03-06T08:33:16.243Z,99609.84
2023-03-06T08:36:18.712Z,99605.16
2023-03-06T08:39:21.302Z,99606.69
2023-03-06T08:42:23.913Z,99600.72
2023-03-06T08:45:26.196Z,99599.09
2023-03-06T08:48:28.693Z,99598.44
2023-03-06T08:51:31.342Z,99604.44
2023-03-06T08:54:37.103Z,99601.41
2023-03-06T08:57:39.346Z,99605.66
2023-03-06T09:00:41.853Z,99598.97
2023-03-06T09:03:44.590Z,99601.81
2023-03-06T09:06:47.122Z,99598.94
2023-03-06T09:09:51.185Z,99597.84
2023-03-06T09:12:55.230Z,99584.19
2023-03-06T09:15:57.543Z,99575.94
2023-03-06T09:19:00.089Z,99579.13
2023-03-06T09:22:02.249Z,99573.19
2023-03-06T09:25:06.297Z,99572.28
2023-03-06T09:28:11.587Z,99566.69
2023-03-06T09:31:19.580Z,99556.75
2023-03-06T09:34:21.793Z,99559.47
2023-03-06T09:37:24.411Z,99562.00
2023-03-06T09:41:01.812Z,99547.88
2023-03-06T09:44:08.665Z,99552.81
2023-03-06T09:47:37.407Z,99552.78
2023-03-06T09:50:46.074Z,99559.94
2023-03-06T09:53:48.162Z,99553.94
2023-03-06T09:56:51.192Z,99558.78
2023-03-06T10:00:02.903Z,99546.25
2023-03-06T10:03:38.138Z,99549.25
2023-03-06T10:06:50.249Z,99542.34
2023-03-06T10:09:57.996Z,99546.59
2023-03-06T10:13:14.136Z,99538.91
2023-03-06T10:16:26.096Z,99542.44
2023-03-06T10:19:35.564Z,99543.59
2023-03-06T10:22:46.066Z,99542.09
2023-03-06T10:25:56.156Z,99542.81
2023-03-06T10:29:13.296Z,99534.81
2023-03-06T10:32:46.145Z,99535.31
2023-03-06T10:35:55.914Z,99540.69
2023-03-06T10:38:59.320Z,99529.97
2023-03-06T10:42:01.530Z,99528.16
2023-03-06T10:45:09.509Z,99521.00
2023-03-06T10:48:16.397Z,99522.63
2023-03-06T10:51:20.989Z,99507.63
2023-03-06T10:54:23.492Z,99504.09
2023-03-06T10:57:30.998Z,99498.50
2023-03-06T11:00:37.993Z,99495.88
2023-03-06T11:03:41.060Z,99485.75
2023-03-06T11:06:43.567Z,99475.81
2023-03-06T11:10:00.141Z,99472.50
2023-03-06T11:13:08.440Z,99469.22
2023-03-06T11:16:13.624Z,99457.06
2023-03-06T11:19:22.972Z,99453.63
2023-03-06T11:22:25.491Z,99443.63
2023-03-06T11:25:34.573Z,99435.84
2023-03-06T11:29:06.552Z,99430.22
2023-03-06T11:32:08.748Z,99421.69
2023-03-06T11:35:22.213Z,99424.06
2023-03-06T11:38:54.280Z,99412.44
2023-03-06T11:42:12.255Z,99399.63
2023-03-06T11:45:31.899Z,99384.50
2023-03-06T11:48:45.152Z,99374.53
2023-03-06T11:51:54.272Z,99364.41
2023-03-06T11:54:57.974Z,99365.97
2023-03-06T11:58:18.203Z,99361.59
2023-03-06T12:01:33.505Z,99354.84
2023-03-06T12:04:48.471Z,99341.91
2023-03-06T12:08:08.293Z,99345.69
2023-03-06T12:11:22.720Z,99340.63
2023-03-06T12:14:39.880Z,99337.16
2023-03-06T12:18:16.607Z,99336.03
2023-03-06T12:21:53.412Z,99332.44
2023-03-06T12:25:26.693Z,99328.31
2023-03-06T12:28:39.744Z,99325.59
2023-03-06T12:32:04.215Z,99331.31
2023-03-06T12:35:09.103Z,99329.87
2023-03-06T12:38:31.339Z,99322.13
2023-03-06T12:41:43.930Z,99318.19
2023-03-06T12:45:27.693Z,99314.19
2023-03-06T12:48:35.629Z,99311.88
2023-03-06T12:51:39.931Z,99312.50
2023-03-06T12:54:45.784Z,99318.31
2023-03-06T12:57:49.127Z,99310.66
2023-03-06T13:01:30.171Z,99300.09
2023-03-06T13:04:43.995Z,99307.19
2023-03-06T13:08:04.643Z,99302.78
2023-03-06T13:11:28.659Z,99303.12
2023-03-06T13:14:54.652Z,99305.66
2023-03-06T13:17:58.289Z,99302.50
2023-03-06T13:21:01.092Z,99294.25
2023-03-06T13:24:05.720Z,99282.84
2023-03-06T13:27:10.614Z,99276.53
2023-03-06T13:30:22.442Z,99277.66
2023-03-06T13:33:27.618Z,99275.75
2023-03-06T13:36:31.544Z,99272.94
2023-03-06T13:39:56.887Z,99278.31
2023-03-06T13:43:12.517Z,99267.81
2023-03-06T13:46:28.948Z,99257.53
2023-03-06T13:49:32.367Z,99259.94
2023-03-06T13:52:46.696Z,99258.34
2023-03-06T13:56:08.292Z,99252.28
2023-03-06T13:59:34.001Z,99247.63
2023-03-06T14:02:36.603Z,99245.66
2023-03-06T14:05:51.031Z,99241.69
2023-03-06T14:08:53.286Z,99244.06
2023-03-06T14:12:23.672Z,99231.69
2023-03-06T14:15:30.535Z,99235.66
2023-03-06T14:18:39.940Z,99237.34
2023-03-06T14:21:44.957Z,99231.50
2023-03-06T14:25:02.909Z,99233.16
2023-03-06T14:28:13.785Z,99233.34
2023-03-06T14:31:20.483Z,99234.06
2023-03-06T14:34:25.673Z,99231.75
2023-03-06T14:37:29.085Z,99228.69
2023-03-06T14:40:45.069Z,99233.34
2023-03-06T14:43:47.620Z,99222.91
2023-03-06T14:46:52.956Z,99233.78
2023-03-06T14:50:32.415Z,99230.91
2023-03-06T14:53:35.024Z,99230.31
2023-03-06T14:56:42.999Z,99225.78
2023-03-06T14:59:56.960Z,99222.69
2023-03-06T15:02:59.955Z,99218.59
2023-03-06T15:06:03.807Z,99216.34
2023-03-06T15:09:30.170Z,99209.03
2023-03-06T15:12:34.930Z,99209.63
2023-03-06T15:15:37.508Z,99208.41
2023-03-06T15:18:54.476Z,99209.19
2023-03-06T15:21:56.927Z,99208.09
2023-03-06T15:25:37.374Z,99203.47
2023-03-06T15:28:39.974Z,99199.94
2023-03-06T15:31:45.781Z,99198.75
2023-03-06T15:34:48.350Z,99196.94
2023-03-06T15:37:51.252Z,99205.28
2023-03-06T15:40:58.354Z,99192.00
2023-03-06T15:44:02.670Z,99203.16
2023-03-06T15:47:09.183Z,99206.63
2023-03-06T15:50:16.689Z,99197.06
2023-03-06T15:53:20.315Z,99197.72
2023-03-06T15:56:34.410Z,99203.06
2023-03-06T15:59:43.173Z,99200.66
2023-03-06T16:02:45.283Z,99198.09
2023-03-06T16:05:47.779Z,99206.38
2023-03-06T16:08:51.186Z,99206.50
2023-03-06T16:11:54.026Z,99214.91
2023-03-06T16:14:57.549Z,99211.22
2023-03-06T16:18:00.263Z,99211.47
2023-03-06T16:21:02.630Z,99203.75
2023-03-06T16:24:05.213Z,99213.16
2023-03-06T16:27:16.863Z,99209.50
2023-03-06T16:30:20.177Z,99200.09
2023-03-06T16:33:22.308Z,99209.72
2023-03-06T16:36:27.109Z,99210.13
2023-03-06T16:39:29.256Z,99217.56
2023-03-06T16:42:31.951Z,99216.78
2023-03-06T16:45:39.111Z,99228.97
2023-03-06T16:48:41.563Z,99234.13
2023-03-06T16:51:44.114Z,99223.22
2023-03-06T16:54:46.552Z,99231.44
2023-03-06T16:57:48.730Z,99226.88
2023-03-06T17:00:51.288Z,99229.78
2023-03-06T17:03:53.503Z,99227.00
2023-03-06T17:06:55.974Z,99237.13
2023-03-06T17:09:58.113Z,99220.75
2023-03-06T17:13:00.618Z,99223.34
2023-03-06T17:16:03.139Z,99232.16
2023-03-06T17:19:05.985Z,99235.44
2023-03-06T17:22:08.166Z,99240.09
2023-03-06T17:25:11.035Z,99235.72
2023-03-06T17:28:13.719Z,99232.44
2023-03-06T17:31:22.023Z,99236.94
2023-03-06T17:34:24.669Z,99231.75
2023-03-06T17:37:27.293Z,99237.00
2023-03-06T17:40:29.543Z,99229.16
2023-03-06T17:43:32.422Z,99225.97
2023-03-06T17:46:34.789Z,99227.09
2023-03-06T17:49:37.237Z,99227.00
2023-03-06T17:52:39.416Z,99225.00
2023-03-06T17:55:41.853Z,99232.94
2023-03-06T17:58:44.176Z,99227.41
2023-03-06T18:01:46.924Z,99227.41
2023-03-06T18:04:49.418Z,99221.53
2023-03-06T18:07:51.626Z,99226.50
2023-03-06T18:11:04.325Z,99231.37
2023-03-06T18:14:06.495Z,99237.19
2023-03-06T18:17:09.029Z,99233.72
2023-03-06T18:20:11.850Z,99231.44
2023-03-06T18:23:14.385Z,99223.25
2023-03-06T18:26:21.870Z,99227.59
2023-03-06T18:29:24.513Z,99226.00
2023-03-06T18:32:26.700Z,99227.78
2023-03-06T18:35:29.407Z,99220.25
2023-03-06T18:38:31.625Z,99218.28
2023-03-06T18:41:35.849Z,99210.81
2023-03-06T18:44:38.635Z,99216.97
2023-03-06T18:47:41.186Z,99224.69
2023-03-06T18:50:43.414Z,99235.00
2023-03-06T18:53:46.378Z,99228.38
2023-03-06T18:56:48.525Z,99231.53
2023-03-06T18:59:51.014Z,99227.75
2023-03-06T19:02:53.201Z,99235.09
2023-03-06T19:05:55.818Z,99240.88
2023-03-06T19:09:02.148Z,99246.22
2023-03-06T19:12:05.669Z,99239.87
2023-03-06T19:15:08.435Z,99240.97
2023-03-06T19:18:12.339Z,99232.63
2023-03-06T19:21:21.836Z,99223.00
2023-03-06T19:24:24.290Z,99220.59
2023-03-06T19:27:26.464Z,99230.03
2023-03-06T19:30:29.042Z,99228.75
2023-03-06T19:33:31.198Z,99217.56
2023-03-06T19:36:34.314Z,99215.69
2023-03-06T19:39:36.481Z,99220.44
2023-03-06T19:42:38.945Z,99208.34
2023-03-06T19:45:43.218Z,99221.84
2023-03-06T19:48:46.226Z,99223.63
2023-03-06T19:51:48.352Z,99229.38
2023-03-06T19:54:51.407Z,99237.59
2023-03-06T19:57:53.907Z,99224.69
2023-03-06T20:01:12.631Z,99219.88
2023-03-06T20:04:16.885Z,99205.78
2023-03-06T20:07:19.556Z,99203.59
2023-03-06T20:10:22.000Z,99201.69
2023-03-06T20:13:24.227Z,99208.75
2023-03-06T20:16:28.031Z,99206.75
2023-03-06T20:19:30.244Z,99211.00
2023-03-06T20:22:32.660Z,99218.34
2023-03-06T20:25:36.442Z,99211.13
2023-03-06T20:28:40.744Z,99207.75
2023-03-06T20:31:43.149Z,99214.06
2023-03-06T20:34:45.906Z,99219.62
2023-03-06T20:37:48.098Z,99213.47
2023-03-06T20:40:54.525Z,99228.12
2023-03-06T20:43:58.519Z,99221.66
2023-03-06T20:47:01.105Z,99226.72
2023-03-06T20:50:03.511Z,99222.53
2023-03-06T20:53:06.404Z,99233.75
2023-03-06T20:56:16.363Z,99227.81
2023-03-06T20:59:18.863Z,99233.94
2023-03-06T21:02:21.141Z,99229.53
2023-03-06T21:05:23.580Z,99233.78
2023-03-06T21:08:25.874Z,99229.53
2023-03-06T21:11:28.654Z,99222.78
2023-03-06T21:14:31.092Z,99227.03
2023-03-06T21:17:33.646Z,99233.72
2023-03-06T21:20:38.667Z,99230.94
2023-03-06T21:23:41.110Z,99236.84
2023-03-06T21:26:43.264Z,99237.66
2023-03-06T21:29:46.290Z,99234.28
2023-03-06T21:32:51.089Z,99233.50
2023-03-06T21:35:53.715Z,99239.03
2023-03-06T21:38:55.906Z,99228.12
2023-03-06T21:41:58.442Z,99226.34
2023-03-06T21:45:00.568Z,99233.00
2023-03-06T21:48:03.427Z,99232.59
2023-03-06T21:51:10.371Z,99233.34
2023-03-06T21:54:13.027Z,99232.16
2023-03-06T21:57:15.389Z,99227.22
2023-03-06T22:00:19.364Z,99219.69
2023-03-06T22:03:21.820Z,99224.94
2023-03-06T22:06:26.197Z,99232.03
2023-03-06T22:09:28.673Z,99228.50
2023-03-06T22:12:32.886Z,99229.28
2023-03-06T22:15:35.296Z,99224.72
2023-03-06T22:18:38.037Z,99228.66
2023-03-06T22:21:40.506Z,99221.16
2023-03-06T22:24:42.625Z,99223.03
2023-03-06T22:27:45.033Z,99227.06
2023-03-06T22:30:47.241Z,99232.41
2023-03-06T22:33:54.300Z,99223.31
2023-03-06T22:36:56.475Z,99224.91
2023-03-06T22:39:58.912Z,99220.62
2023-03-06T22:43:01.190Z,99213.09
2023-03-06T22:46:06.486Z,99220.09
2023-03-06T22:49:11.606Z,99226.03
2023-03-06T22:52:15.245Z,99226.81
2023-03-06T22:55:17.546Z,99232.75
2023-03-06T22:58:20.040Z,99231.94
2023-03-06T23:01:25.302Z,99237.91
2023-03-06T23:04:27.819Z,99242.66
2023-03-06T23:07:30.375Z,99233.19
2023-03-06T23:10:39.800Z,99225.16
2023-03-06T23:14:01.307Z,99233.72
2023-03-06T23:17:21.647Z,99229.88
2023-03-06T23:20:43.542Z,99226.91
2023-03-06T23:24:04.468Z,99224.31
2023-03-06T23:27:07.108Z,99220.47
2023-03-06T23:30:09.899Z,99230.63
2023-03-06T23:33:12.388Z,99224.31
2023-03-06T23:36:16.616Z,99228.44
2023-03-06T23:39:19.167Z,99226.84
2023-03-06T23:42:22.530Z,99230.72
2023-03-06T23:45:25.047Z,99220.28
2023-03-06T23:48:27.806Z,99220.03
2023-03-06T23:51:30.289Z,99225.09
2023-03-06T23:54:34.290Z,99221.69
2023-03-06T23:57:37.141Z,99223.22
